createdAt,value
2023-05-10T00:00:13.570Z,3.36
2023-05-10T00:01:12.925Z,3.33
2023-05-10T00:02:13.482Z,3.34
2023-05-10T00:03:13.715Z,3.31
2023-05-10T00:04:14.166Z,3.3
2023-05-10T00:05:14.585Z,3.27
2023-05-10T00:06:14.775Z,3.26
2023-05-10T00:07:15.062Z,3.23
2023-05-10T00:08:15.400Z,3.18
2023-05-10T00:09:15.743Z,3.15
2023-05-10T00:10:16.531Z,3.11
2023-05-10T00:11:16.567Z,3.1
2023-05-10T00:12:16.886Z,3.07
2023-05-10T00:13:17.185Z,3.05
2023-05-10T00:14:17.935Z,3.05
2023-05-10T00:15:17.837Z,3.07
2023-05-10T00:16:18.372Z,3.04
2023-05-10T00:17:18.715Z,2.99
2023-05-10T00:18:18.880Z,2.98
2023-05-10T00:19:19.510Z,2.97
2023-05-10T00:20:19.830Z,2.96
2023-05-10T00:21:20.030Z,3
2023-05-10T00:22:20.540Z,3.01
2023-05-10T00:23:20.747Z,2.98
2023-05-10T00:24:21.068Z,2.96
2023-05-10T00:25:21.497Z,2.98
2023-05-10T00:26:21.888Z,2.99
2023-05-10T00:27:22.109Z,2.97
2023-05-10T00:28:22.737Z,3
2023-05-10T00:29:22.835Z,3.05
2023-05-10T00:30:23.248Z,3.09
2023-05-10T00:31:23.917Z,3.11
2023-05-10T00:32:23.939Z,3.14
2023-05-10T00:33:24.323Z,3.13
2023-05-10T00:34:24.620Z,3.13
2023-05-10T00:35:25.462Z,3.05
2023-05-10T00:36:25.451Z,2.99
2023-05-10T00:37:26.758Z,2.96
2023-05-10T00:38:26.037Z,2.91
2023-05-10T00:39:26.123Z,2.86
2023-05-10T00:40:27.157Z,2.82
2023-05-10T00:41:26.918Z,2.8
2023-05-10T00:42:27.423Z,2.8
2023-05-10T00:43:27.714Z,2.77
2023-05-10T00:44:28.055Z,2.75
2023-05-10T00:45:28.260Z,2.75
2023-05-10T00:46:29.634Z,2.75
2023-05-10T00:47:29.821Z,2.82
2023-05-10T00:48:30.546Z,2.88
2023-05-10T00:49:30.285Z,2.9
2023-05-10T00:50:31.171Z,2.89
2023-05-10T00:51:30.455Z,2.88
2023-05-10T00:52:31.240Z,2.9
2023-05-10T00:53:32.838Z,2.91
2023-05-10T00:54:31.645Z,2.9
2023-05-10T00:55:32.117Z,2.9
2023-05-10T00:56:32.595Z,2.9
2023-05-10T00:57:32.741Z,2.9
2023-05-10T00:58:32.864Z,2.93
2023-05-10T00:59:33.587Z,2.92
2023-05-10T01:00:34.419Z,2.91
2023-05-10T01:01:34.248Z,2.86
2023-05-10T01:02:35.767Z,2.76
2023-05-10T01:03:35.516Z,2.7
2023-05-10T01:04:36.222Z,2.67
2023-05-10T01:05:35.367Z,2.64
2023-05-10T01:06:35.672Z,2.6
2023-05-10T01:07:36.205Z,2.61
2023-05-10T01:08:36.661Z,2.59
2023-05-10T01:09:36.825Z,2.58
2023-05-10T01:10:37.185Z,2.59
2023-05-10T01:11:39.100Z,2.56
2023-05-10T01:12:40.613Z,2.55
2023-05-10T01:13:40.181Z,2.55
2023-05-10T01:14:39.115Z,2.55
2023-05-10T01:15:39.944Z,2.53
2023-05-10T01:16:41.279Z,2.52
2023-05-10T01:17:41.545Z,2.52
2023-05-10T01:18:41.927Z,2.53
2023-05-10T01:19:40.583Z,2.5
2023-05-10T01:31:19.329Z,2.44
2023-05-10T01:34:17.334Z,2.27
2023-05-10T01:36:26.052Z,2.28
2023-05-10T01:37:27.291Z,2.29
2023-05-10T01:42:30.085Z,2.36
2023-05-10T01:43:38.262Z,2.38
2023-05-10T01:46:41.002Z,2.3
2023-05-10T01:48:48.258Z,2.16
2023-05-10T01:50:49.397Z,1.98
2023-05-10T01:51:52.824Z,1.96
2023-05-10T01:52:57.380Z,1.85
2023-05-10T01:54:01.655Z,1.81
2023-05-10T01:55:05.486Z,1.86
2023-05-10T01:56:04.363Z,1.93
2023-05-10T01:57:06.539Z,1.9
2023-05-10T01:59:12.449Z,1.97
2023-05-10T02:00:12.444Z,1.97
2023-05-10T02:01:11.380Z,1.95
2023-05-10T02:02:13.317Z,1.96
2023-05-10T02:03:13.078Z,1.92
2023-05-10T02:04:14.690Z,1.84
2023-05-10T02:05:14.259Z,1.78
2023-05-10T02:06:16.077Z,1.79
2023-05-10T02:07:15.350Z,1.77
2023-05-10T02:08:16.764Z,1.77
2023-05-10T02:09:15.350Z,1.77
2023-05-10T02:10:15.730Z,1.75
2023-05-10T02:11:15.381Z,1.75
2023-05-10T02:12:17.217Z,1.77
2023-05-10T02:13:18.060Z,1.77
2023-05-10T02:14:18.005Z,1.73
2023-05-10T02:15:20.264Z,1.71
2023-05-10T02:16:19.530Z,1.71
2023-05-10T02:17:19.138Z,1.72
2023-05-10T02:18:19.601Z,1.76
2023-05-10T02:19:21.133Z,1.73
2023-05-10T02:20:21.631Z,1.7
2023-05-10T02:21:21.433Z,1.68
2023-05-10T02:22:21.441Z,1.73
2023-05-10T02:23:21.957Z,1.8
2023-05-10T02:24:22.674Z,1.86
2023-05-10T02:25:22.335Z,1.92
2023-05-10T02:26:24.633Z,1.92
2023-05-10T02:27:23.402Z,1.91
2023-05-10T02:28:24.874Z,1.96
2023-05-10T02:29:28.233Z,1.92
2023-05-10T02:30:26.357Z,1.91
2023-05-10T02:31:26.927Z,1.86
2023-05-10T02:32:28.999Z,1.8
2023-05-10T02:33:27.591Z,1.8
2023-05-10T02:34:28.438Z,1.81
2023-05-10T02:35:28.534Z,1.84
2023-05-10T02:36:28.891Z,1.82
2023-05-10T02:37:28.288Z,1.79
2023-05-10T02:38:29.424Z,1.78
2023-05-10T02:39:30.667Z,1.79
2023-05-10T02:40:30.406Z,1.79
2023-05-10T02:41:31.899Z,1.79
2023-05-10T02:42:32.108Z,1.78
2023-05-10T02:43:33.042Z,1.79
2023-05-10T02:44:31.148Z,1.78
2023-05-10T02:45:33.314Z,1.78
2023-05-10T02:46:31.869Z,1.8
2023-05-10T02:47:31.491Z,1.83
2023-05-10T02:48:31.946Z,1.9
2023-05-10T02:49:32.170Z,1.97
2023-05-10T02:50:34.519Z,1.99
2023-05-10T02:51:35.823Z,1.97
2023-05-10T02:52:41.492Z,1.94
2023-05-10T02:53:36.938Z,1.91
2023-05-10T02:54:42.336Z,1.93
2023-05-10T02:55:39.156Z,1.96
2023-05-10T02:56:41.629Z,1.95
2023-05-10T02:57:44.398Z,1.92
2023-05-10T02:58:41.962Z,1.9
2023-05-10T02:59:42.250Z,1.85
2023-05-10T03:00:42.460Z,1.85
2023-05-10T03:01:42.937Z,1.89
2023-05-10T03:02:43.188Z,1.91
2023-05-10T03:03:43.618Z,1.94
2023-05-10T03:04:43.879Z,1.95
2023-05-10T03:05:44.240Z,1.99
2023-05-10T03:06:45.269Z,2.04
2023-05-10T03:07:45.793Z,2.03
2023-05-10T03:08:46.123Z,2
2023-05-10T03:09:45.701Z,1.99
2023-05-10T03:20:13.711Z,1.98
2023-05-10T03:21:14.654Z,1.96
2023-05-10T03:25:22.681Z,2
2023-05-10T03:27:26.264Z,2.07
2023-05-10T03:28:26.285Z,2.07
2023-05-10T03:29:26.969Z,2.08
2023-05-10T03:30:26.075Z,2.13
2023-05-10T03:31:25.010Z,2.19
2023-05-10T03:32:25.319Z,2.22
2023-05-10T03:33:26.422Z,2.27
2023-05-10T03:34:26.429Z,2.31
2023-05-10T03:35:26.061Z,2.37
2023-05-10T03:36:26.635Z,2.39
2023-05-10T03:37:26.744Z,2.42
2023-05-10T03:38:29.659Z,2.5
2023-05-10T03:39:27.988Z,2.61
2023-05-10T03:40:29.618Z,2.68
2023-05-10T03:41:28.499Z,2.73
2023-05-10T03:42:28.879Z,2.82
2023-05-10T03:43:29.466Z,2.91
2023-05-10T03:44:29.450Z,2.98
2023-05-10T03:45:29.988Z,3.01
2023-05-10T03:46:30.371Z,3.02
2023-05-10T03:47:30.810Z,3.07
2023-05-10T03:48:31.491Z,3.07
2023-05-10T03:49:31.324Z,3.19
2023-05-10T03:50:31.675Z,3.25
2023-05-10T03:51:32.010Z,3.32
2023-05-10T03:52:32.316Z,3.37
2023-05-10T03:53:32.785Z,3.39
2023-05-10T03:54:33.098Z,3.42
2023-05-10T03:55:33.620Z,3.42
2023-05-10T03:56:33.734Z,3.42
2023-05-10T03:57:34.450Z,3.48
2023-05-10T03:58:34.550Z,3.64
2023-05-10T03:59:34.876Z,3.69
2023-05-10T04:00:35.115Z,3.71
2023-05-10T04:01:36.299Z,3.77
2023-05-10T04:02:36.034Z,3.81
2023-05-10T04:03:36.293Z,3.79
2023-05-10T04:04:36.602Z,3.83
2023-05-10T04:05:37.267Z,3.96
2023-05-10T04:06:38.896Z,4.09
2023-05-10T04:07:37.698Z,4.25
2023-05-10T04:08:38.122Z,4.38
2023-05-10T04:09:38.287Z,4.46
2023-05-10T04:10:39.040Z,4.57
2023-05-10T04:11:39.261Z,4.65
2023-05-10T04:12:39.360Z,4.72
2023-05-10T04:13:39.776Z,4.83
2023-05-10T04:14:40.140Z,4.88
2023-05-10T04:15:40.355Z,4.98
2023-05-10T04:16:40.939Z,5.01
2023-05-10T04:17:41.381Z,4.98
2023-05-10T04:18:41.646Z,4.97
2023-05-10T04:19:41.965Z,5.02
2023-05-10T04:20:42.279Z,5.17
2023-05-10T04:21:42.590Z,5.33
2023-05-10T04:22:43.040Z,5.48
2023-05-10T04:23:43.441Z,5.65
2023-05-10T04:24:43.642Z,5.78
2023-05-10T04:25:44.355Z,5.93
2023-05-10T04:26:44.476Z,6.06
2023-05-10T04:27:44.881Z,6.15
2023-05-10T04:28:45.150Z,6.24
2023-05-10T04:29:45.621Z,6.36
2023-05-10T04:30:46.573Z,6.47
2023-05-10T04:31:46.386Z,6.56
2023-05-10T04:32:46.709Z,6.66
2023-05-10T04:33:47.442Z,6.72
2023-05-10T04:34:47.700Z,6.74
2023-05-10T04:35:47.929Z,6.81
2023-05-10T04:36:48.116Z,6.92
2023-05-10T04:37:48.553Z,6.94
2023-05-10T04:38:49.153Z,7.02
2023-05-10T04:39:49.187Z,7.11
2023-05-10T04:40:49.705Z,7.21
2023-05-10T04:41:50.009Z,7.25
2023-05-10T04:42:50.435Z,7.32
2023-05-10T04:43:50.945Z,7.41
2023-05-10T04:44:51.250Z,7.5
2023-05-10T04:45:51.591Z,7.59
2023-05-10T04:46:51.886Z,7.67
2023-05-10T04:47:52.324Z,7.75
2023-05-10T04:48:52.721Z,7.8
2023-05-10T04:49:53.022Z,7.83
2023-05-10T04:50:53.445Z,7.89
2023-05-10T04:51:53.655Z,7.98
2023-05-10T04:52:54.172Z,8.06
2023-05-10T04:54:05.335Z,8.15
2023-05-10T04:54:59.197Z,8.24
2023-05-10T04:55:59.712Z,8.32
2023-05-10T04:57:00.041Z,8.37
2023-05-10T04:58:00.234Z,8.43
2023-05-10T04:59:00.772Z,8.53
2023-05-10T05:00:01.319Z,8.65
2023-05-10T05:01:10.439Z,8.76
2023-05-10T05:02:03.144Z,8.88
2023-05-10T05:03:03.509Z,8.93
2023-05-10T05:04:04.396Z,8.91
2023-05-10T05:05:04.756Z,8.98
2023-05-10T05:06:05.121Z,9.11
2023-05-10T05:07:05.027Z,9.23
2023-05-10T05:08:05.533Z,9.26
2023-05-10T05:09:05.846Z,9.28
2023-05-10T05:10:09.944Z,9.3
2023-05-10T05:11:07.192Z,9.39
2023-05-10T05:12:07.714Z,9.49
2023-05-10T05:13:08.329Z,9.58
2023-05-10T05:14:08.749Z,9.67
2023-05-10T05:15:09.941Z,9.77
2023-05-10T05:16:09.269Z,9.87
2023-05-10T05:17:09.698Z,9.99
2023-05-10T05:18:10.021Z,10.05
2023-05-10T05:19:10.474Z,10.07
2023-05-10T05:20:11.775Z,10.09
2023-05-10T05:21:18.824Z,10.17
2023-05-10T05:22:17.252Z,10.29
2023-05-10T05:23:16.718Z,10.4
2023-05-10T05:24:17.233Z,10.46
2023-05-10T05:25:17.352Z,10.53
2023-05-10T05:26:17.946Z,10.6
2023-05-10T05:27:18.250Z,10.69
2023-05-10T05:28:19.277Z,10.74
2023-05-10T05:29:19.047Z,10.76
2023-05-10T05:30:19.834Z,10.7
2023-05-10T05:31:19.882Z,10.68
2023-05-10T05:32:20.403Z,10.66
2023-05-10T05:33:20.743Z,10.76
2023-05-10T05:34:21.484Z,10.89
2023-05-10T05:35:21.516Z,10.96
2023-05-10T05:36:21.904Z,10.96
2023-05-10T05:37:22.556Z,10.9
2023-05-10T05:38:22.728Z,10.91
2023-05-10T05:39:23.150Z,11.03
2023-05-10T05:40:23.826Z,11.16
2023-05-10T05:41:23.980Z,11.25
2023-05-10T05:42:24.493Z,11.38
2023-05-10T05:43:24.925Z,11.47
2023-05-10T05:44:26.189Z,11.52
2023-05-10T05:45:25.641Z,11.58
2023-05-10T05:46:26.116Z,11.66
2023-05-10T05:47:26.433Z,11.74
2023-05-10T05:48:27.108Z,11.82
2023-05-10T05:49:27.299Z,11.85
2023-05-10T05:50:27.831Z,11.8
2023-05-10T05:51:28.236Z,11.87
2023-05-10T05:52:28.452Z,11.97
2023-05-10T05:53:29.073Z,12.01
2023-05-10T05:54:29.510Z,12.03
2023-05-10T05:55:29.730Z,12.08
2023-05-10T05:56:30.228Z,12.16
2023-05-10T05:57:30.814Z,12.22
2023-05-10T05:58:31.143Z,12.27
2023-05-10T05:59:31.456Z,12.36
2023-05-10T06:00:31.862Z,12.4
2023-05-10T06:01:32.304Z,12.41
2023-05-10T06:02:32.782Z,12.46
2023-05-10T06:03:33.218Z,12.5
2023-05-10T06:04:33.645Z,12.59
2023-05-10T06:05:33.805Z,12.75
2023-05-10T06:06:34.917Z,12.89
2023-05-10T06:07:35.531Z,12.91
2023-05-10T06:08:35.728Z,12.94
2023-05-10T06:09:36.360Z,12.97
2023-05-10T06:10:36.928Z,13.06
2023-05-10T06:11:37.691Z,13.11
2023-05-10T06:12:37.812Z,13.11
2023-05-10T06:13:37.951Z,13.17
2023-05-10T06:14:38.367Z,13.23
2023-05-10T06:15:39.401Z,13.3
2023-05-10T06:16:39.188Z,13.34
2023-05-10T06:17:39.823Z,13.39
2023-05-10T06:18:40.200Z,13.35
2023-05-10T06:19:40.705Z,13.22
2023-05-10T06:20:43.070Z,13.21
2023-05-10T06:21:41.352Z,13.29
2023-05-10T06:22:42.073Z,13.42
2023-05-10T06:23:42.281Z,13.5
2023-05-10T06:24:42.791Z,13.55
2023-05-10T06:25:43.319Z,13.68
2023-05-10T06:26:43.623Z,13.81
2023-05-10T06:27:45.751Z,13.91
2023-05-10T06:28:45.599Z,14
2023-05-10T06:29:46.012Z,14.1
2023-05-10T06:30:46.320Z,14.21
2023-05-10T06:31:46.897Z,14.26
2023-05-10T06:32:47.379Z,14.21
2023-05-10T06:33:47.772Z,14.21
2023-05-10T06:34:48.592Z,14.17
2023-05-10T06:35:48.597Z,14.16
2023-05-10T06:36:49.700Z,14.15
2023-05-10T06:37:50.509Z,14.24
2023-05-10T06:38:50.373Z,14.34
2023-05-10T06:39:50.982Z,14.37
2023-05-10T06:40:51.509Z,14.19
2023-05-10T06:41:51.720Z,14.24
2023-05-10T06:42:52.348Z,14.39
2023-05-10T06:43:52.672Z,14.55
2023-05-10T06:44:53.469Z,14.68
2023-05-10T06:45:53.470Z,14.69
2023-05-10T06:46:54.103Z,14.68
2023-05-10T06:47:54.566Z,14.69
2023-05-10T06:48:54.723Z,14.85
2023-05-10T06:49:55.366Z,14.96
2023-05-10T06:50:55.813Z,14.99
2023-05-10T06:51:57.426Z,15.05
2023-05-10T06:52:56.606Z,15.11
2023-05-10T06:53:57.121Z,15.08
2023-05-10T06:54:57.581Z,15.18
2023-05-10T06:55:57.884Z,15.33
2023-05-10T06:56:58.471Z,15.31
2023-05-10T06:57:58.720Z,15.32
2023-05-10T06:58:59.171Z,15.41
2023-05-10T07:00:00.487Z,15.47
2023-05-10T07:01:06.433Z,15.37
2023-05-10T07:02:03.828Z,15.49
2023-05-10T07:03:04.576Z,15.57
2023-05-10T07:04:05.489Z,15.63
2023-05-10T07:05:06.627Z,15.47
2023-05-10T07:06:06.559Z,15.54
2023-05-10T07:07:07.350Z,15.63
2023-05-10T07:08:07.714Z,15.65
2023-05-10T07:09:08.376Z,15.79
2023-05-10T07:10:09.826Z,15.72
2023-05-10T07:11:09.209Z,15.61
2023-05-10T07:12:11.618Z,15.79
2023-05-10T07:13:10.479Z,15.98
2023-05-10T07:14:10.659Z,15.9
2023-05-10T07:15:11.821Z,15.9
2023-05-10T07:16:11.745Z,15.88
2023-05-10T07:17:12.134Z,15.98
2023-05-10T07:18:12.573Z,15.98
2023-05-10T07:19:13.045Z,15.84
2023-05-10T07:20:14.020Z,15.8
2023-05-10T07:21:13.983Z,15.76
2023-05-10T07:22:14.308Z,15.62
2023-05-10T07:23:14.726Z,15.56
2023-05-10T07:24:15.197Z,15.46
2023-05-10T07:25:15.963Z,15.48
2023-05-10T07:26:16.286Z,15.52
2023-05-10T07:27:16.642Z,15.64
2023-05-10T07:28:17.216Z,15.77
2023-05-10T07:29:17.627Z,15.91
2023-05-10T07:30:18.178Z,15.79
2023-05-10T07:31:18.459Z,15.85
2023-05-10T07:32:19.200Z,15.89
2023-05-10T07:33:19.499Z,15.95
2023-05-10T07:34:19.848Z,16.12
2023-05-10T07:35:20.960Z,16.38
2023-05-10T07:36:20.692Z,16.62
2023-05-10T07:37:21.165Z,16.72
2023-05-10T07:38:21.637Z,16.48
2023-05-10T07:39:27.532Z,16.19
2023-05-10T07:40:25.686Z,16.08
2023-05-10T07:41:26.097Z,16.14
2023-05-10T07:42:26.632Z,16.23
2023-05-10T07:43:27.042Z,16.34
2023-05-10T07:44:27.552Z,16.57
2023-05-10T07:45:28.705Z,16.65
2023-05-10T07:46:28.537Z,16.84
2023-05-10T07:47:28.764Z,16.62
2023-05-10T07:48:29.313Z,16.46
2023-05-10T07:49:29.943Z,16.43
2023-05-10T07:50:30.568Z,16.39
2023-05-10T07:51:30.709Z,16.43
2023-05-10T07:52:31.188Z,16.51
2023-05-10T07:53:31.855Z,16.52
2023-05-10T07:54:32.331Z,16.68
2023-05-10T07:55:32.849Z,16.71
2023-05-10T07:56:33.461Z,16.64
2023-05-10T07:57:33.693Z,16.34
2023-05-10T07:58:34.017Z,15.93
2023-05-10T07:59:34.262Z,16.13
2023-05-10T08:00:35.345Z,16.28
2023-05-10T08:01:35.886Z,16.35
2023-05-10T08:02:37.247Z,16.43
2023-05-10T08:03:36.336Z,16.6
2023-05-10T08:04:36.697Z,16.68
2023-05-10T08:05:37.207Z,16.73
2023-05-10T08:06:37.618Z,16.59
2023-05-10T08:07:37.940Z,16.57
2023-05-10T08:08:38.882Z,16.7
2023-05-10T08:09:38.832Z,16.84
2023-05-10T08:10:39.513Z,16.78
2023-05-10T08:11:39.809Z,17.04
2023-05-10T08:12:40.426Z,17.07
2023-05-10T08:13:40.851Z,17.11
2023-05-10T08:14:41.386Z,17.15
2023-05-10T08:15:41.806Z,16.82
2023-05-10T08:16:42.402Z,16.91
2023-05-10T08:17:42.844Z,17.09
2023-05-10T08:18:46.007Z,16.98
2023-05-10T08:19:43.657Z,16.85
2023-05-10T08:20:44.084Z,16.84
2023-05-10T08:21:44.521Z,16.76
2023-05-10T08:22:45.008Z,16.83
2023-05-10T08:23:45.456Z,16.71
2023-05-10T08:24:45.830Z,16.64
2023-05-10T08:25:46.268Z,16.72
2023-05-10T08:26:46.771Z,16.97
2023-05-10T08:27:47.394Z,16.83
2023-05-10T08:28:47.706Z,16.93
2023-05-10T08:29:50.349Z,17.25
2023-05-10T08:30:48.643Z,17.29
2023-05-10T08:31:49.190Z,17.33
2023-05-10T08:32:49.730Z,17.39
2023-05-10T08:33:50.004Z,17.45
2023-05-10T08:34:50.404Z,17.2
2023-05-10T08:35:51.435Z,17.2
2023-05-10T08:36:51.270Z,17.34
2023-05-10T08:37:52.318Z,17.5
2023-05-10T08:38:52.454Z,17.4
2023-05-10T08:39:52.518Z,17.37
2023-05-10T08:40:56.237Z,17.33
2023-05-10T08:41:58.918Z,17.36
2023-05-10T08:43:59.581Z,17.08
2023-05-10T08:45:00.710Z,17.4
2023-05-10T08:46:02.870Z,17.59
2023-05-10T08:47:03.769Z,17.53
2023-05-10T08:48:03.733Z,17.61
2023-05-10T08:49:04.318Z,17.35
2023-05-10T08:50:04.167Z,17.5
2023-05-10T08:51:04.776Z,17.32
2023-05-10T08:52:06.717Z,17.66
2023-05-10T08:53:07.213Z,17.9
2023-05-10T08:54:05.691Z,17.84
2023-05-10T08:55:05.510Z,17.92
2023-05-10T08:56:05.856Z,18.07
2023-05-10T08:57:05.994Z,18.21
2023-05-10T08:58:06.632Z,18.38
2023-05-10T08:59:06.433Z,18.26
2023-05-10T09:00:08.806Z,17.94
2023-05-10T09:01:07.571Z,18.23
2023-05-10T09:02:09.372Z,18.11
2023-05-10T09:03:07.811Z,18.02
2023-05-10T09:04:08.478Z,18
2023-05-10T09:05:09.516Z,17.93
2023-05-10T09:06:09.268Z,18.29
2023-05-10T09:07:09.360Z,18.26
2023-05-10T09:08:10.328Z,18.26
2023-05-10T09:09:10.298Z,18.09
2023-05-10T09:10:12.672Z,17.98
2023-05-10T09:11:13.906Z,18.27
2023-05-10T09:12:11.849Z,18
2023-05-10T09:13:12.165Z,17.79
2023-05-10T09:14:13.823Z,17.75
2023-05-10T09:15:13.116Z,17.49
2023-05-10T09:16:21.383Z,17.62
2023-05-10T09:17:15.098Z,17.98
2023-05-10T09:18:15.093Z,18.25
2023-05-10T09:19:15.923Z,18.36
2023-05-10T09:20:15.910Z,18.43
2023-05-10T09:21:16.585Z,18.21
2023-05-10T09:22:18.472Z,18.12
2023-05-10T09:23:16.948Z,17.67
2023-05-10T09:24:17.471Z,17.51
2023-05-10T09:25:18.548Z,17.8
2023-05-10T09:26:18.185Z,17.83
2023-05-10T09:27:27.318Z,17.84
2023-05-10T09:28:19.969Z,17.51
2023-05-10T09:29:20.009Z,17.45
2023-05-10T09:31:24.844Z,17.67
2023-05-10T09:33:29.224Z,18.01
2023-05-10T09:34:33.532Z,18.03
2023-05-10T09:35:33.429Z,17.74
2023-05-10T09:36:31.812Z,18.02
2023-05-10T09:37:31.788Z,18.23
2023-05-10T09:39:37.868Z,18.07
2023-05-10T09:40:35.407Z,18.16
2023-05-10T09:41:35.697Z,17.94
2023-05-10T09:42:35.968Z,17.68
2023-05-10T09:43:39.446Z,17.57
2023-05-10T09:44:37.551Z,17.41
2023-05-10T09:45:38.867Z,17.59
2023-05-10T09:46:38.019Z,17.55
2023-05-10T09:47:38.040Z,17.46
2023-05-10T09:48:48.478Z,17.6
2023-05-10T09:49:43.627Z,17.96
2023-05-10T09:50:41.505Z,17.9
2023-05-10T09:51:41.704Z,18.07
2023-05-10T09:53:45.908Z,18.34
2023-05-10T09:54:54.729Z,18.33
2023-05-10T09:55:47.781Z,18.38
2023-05-10T09:56:47.568Z,18.31
2023-05-10T09:57:48.866Z,18.36
2023-05-10T09:59:50.160Z,18.28
2023-05-10T10:00:50.705Z,18.49
2023-05-10T10:01:51.999Z,18.71
2023-05-10T10:03:01.018Z,18.83
2023-05-10T10:03:54.587Z,18.97
2023-05-10T10:04:54.290Z,18.9
2023-05-10T10:05:54.318Z,18.81
2023-05-10T10:07:06.537Z,18.28
2023-05-10T10:07:59.996Z,17.72
2023-05-10T10:08:59.532Z,17.48
2023-05-10T10:10:00.867Z,17.37
2023-05-10T10:11:00.371Z,17.36
2023-05-10T10:12:01.433Z,17.43
2023-05-10T10:13:01.404Z,17.84
2023-05-10T10:14:01.706Z,18.23
2023-05-10T10:15:02.030Z,18.47
2023-05-10T10:16:03.235Z,18.76
2023-05-10T10:17:07.402Z,18.56
2023-05-10T10:18:06.766Z,18.58
2023-05-10T10:19:07.728Z,18.73
2023-05-10T10:20:11.148Z,18.56
2023-05-10T10:21:09.755Z,18.58
2023-05-10T10:22:10.066Z,18.61
2023-05-10T10:23:10.380Z,18.8
2023-05-10T10:24:10.579Z,18.59
2023-05-10T10:25:19.056Z,18.75
2023-05-10T10:26:12.351Z,18.69
2023-05-10T10:34:31.238Z,19.03
2023-05-10T10:35:34.212Z,18.95
2023-05-10T10:36:34.484Z,18.88
2023-05-10T10:39:36.903Z,18.55
2023-05-10T10:40:36.922Z,18.86
2023-05-10T10:42:48.588Z,18.83
2023-05-10T10:43:46.042Z,18.46
2023-05-10T10:44:46.391Z,18.69
2023-05-10T10:47:50.366Z,18.18
2023-05-10T10:49:52.972Z,18.52
2023-05-10T10:53:13.172Z,18.29
2023-05-10T10:54:10.679Z,18.27
2023-05-10T10:56:11.466Z,18.75
2023-05-10T10:57:15.977Z,19.24
2023-05-10T10:59:28.230Z,18.85
2023-05-10T11:00:34.275Z,19.35
2023-05-10T11:01:22.126Z,19.52
2023-05-10T11:03:22.031Z,19.8
2023-05-10T11:04:22.771Z,20
2023-05-10T11:06:38.274Z,19.71
2023-05-10T11:07:30.594Z,19.41
2023-05-10T11:08:32.659Z,19.45
2023-05-10T11:09:41.227Z,19.25
2023-05-10T11:10:33.944Z,19.13
2023-05-10T11:11:36.114Z,19.47
2023-05-10T11:12:34.693Z,19.51
2023-05-10T11:13:40.100Z,19.36
2023-05-10T11:14:37.643Z,19.48
2023-05-10T11:15:39.597Z,19.79
2023-05-10T11:16:45.319Z,19.69
2023-05-10T11:17:43.955Z,19.81
2023-05-10T11:18:54.503Z,19.95
2023-05-10T11:20:57.421Z,19.69
2023-05-10T11:22:58.586Z,19.54
2023-05-10T11:24:00.198Z,19.54
2023-05-10T11:24:59.566Z,19.52
2023-05-10T11:26:01.781Z,19.28
2023-05-10T11:27:01.084Z,19.36
2023-05-10T11:28:05.585Z,19.21
2023-05-10T11:29:02.958Z,19.55
2023-05-10T11:30:07.752Z,19.8
2023-05-10T11:31:05.598Z,19.72
2023-05-10T11:32:06.630Z,19.53
2023-05-10T11:33:06.862Z,19.24
2023-05-10T11:34:06.432Z,19.35
2023-05-10T11:35:10.352Z,19.81
2023-05-10T11:36:12.443Z,19.98
2023-05-10T11:37:10.244Z,19.91
2023-05-10T11:38:12.023Z,19.99
2023-05-10T11:39:10.680Z,19.78
2023-05-10T11:40:12.212Z,19.6
2023-05-10T11:41:12.119Z,19.58
2023-05-10T11:42:13.478Z,19.78
2023-05-10T11:43:12.281Z,19.4
2023-05-10T11:44:12.863Z,19.53
2023-05-10T11:45:13.075Z,19.61
2023-05-10T11:46:14.740Z,19.37
2023-05-10T11:47:13.915Z,19.15
2023-05-10T11:48:14.294Z,19.08
2023-05-10T11:49:14.728Z,19.48
2023-05-10T11:50:15.311Z,19.68
2023-05-10T11:51:15.875Z,19.46
2023-05-10T11:52:15.777Z,19.34
2023-05-10T11:53:16.196Z,18.93
2023-05-10T11:54:16.727Z,18.64
2023-05-10T11:55:17.337Z,18.21
2023-05-10T11:56:17.858Z,18.27
2023-05-10T11:57:20.126Z,18.31
2023-05-10T11:58:19.746Z,18.7
2023-05-10T11:59:18.590Z,18.67
2023-05-10T12:00:19.303Z,18.79
2023-05-10T12:01:19.645Z,19.06
2023-05-10T12:02:20.106Z,19.27
2023-05-10T12:03:20.708Z,19.31
2023-05-10T12:04:21.446Z,19.04
2023-05-10T12:05:21.098Z,18.59
2023-05-10T12:06:22.112Z,18.69
2023-05-10T12:07:21.705Z,18.98
2023-05-10T12:08:24.484Z,18.9
2023-05-10T12:09:35.455Z,18.56
2023-05-10T12:10:27.970Z,18.64
2023-05-10T12:12:26.963Z,19.21
2023-05-10T12:13:27.327Z,19.59
2023-05-10T12:14:27.654Z,19.56
2023-05-10T12:15:28.934Z,19.58
2023-05-10T12:16:30.903Z,19.47
2023-05-10T12:17:29.985Z,19.65
2023-05-10T12:18:29.205Z,19.56
2023-05-10T12:19:29.665Z,19.86
2023-05-10T12:20:30.205Z,19.65
2023-05-10T12:21:30.926Z,19.58
2023-05-10T12:22:30.774Z,19.02
2023-05-10T12:23:31.335Z,18.55
2023-05-10T12:24:31.657Z,18.36
2023-05-10T12:25:34.659Z,18.26
2023-05-10T12:26:33.781Z,18.13
2023-05-10T12:30:00.482Z,18.08
2023-05-10T12:30:42.870Z,18.15
2023-05-10T12:32:46.250Z,18.01
2023-05-10T12:33:47.166Z,17.92
2023-05-10T12:34:47.899Z,18.06
2023-05-10T12:35:52.244Z,17.98
2023-05-10T12:36:52.833Z,18.02
2023-05-10T12:37:51.863Z,18.11
2023-05-10T12:38:50.586Z,18.11
2023-05-10T12:39:50.842Z,18.02
2023-05-10T12:40:51.324Z,17.99
2023-05-10T12:41:52.292Z,17.96
2023-05-10T12:42:52.325Z,17.98
2023-05-10T12:43:52.579Z,18.06
2023-05-10T12:44:57.118Z,18.03
2023-05-10T12:45:54.855Z,17.91
2023-05-10T12:46:55.079Z,17.83
2023-05-10T12:47:55.491Z,17.79
2023-05-10T12:49:06.860Z,17.87
2023-05-10T12:49:56.160Z,18.01
2023-05-10T12:50:56.609Z,18.15
2023-05-10T12:51:57.027Z,18.21
2023-05-10T12:52:57.401Z,18.29
2023-05-10T12:53:57.700Z,18.37
2023-05-10T12:54:58.098Z,18.48
2023-05-10T12:55:58.599Z,18.37
2023-05-10T12:56:58.867Z,18.33
2023-05-10T12:58:00.342Z,18.27
2023-05-10T12:58:59.747Z,17.93
2023-05-10T12:59:59.982Z,17.74
2023-05-10T13:01:00.552Z,17.69
2023-05-10T13:02:00.932Z,17.67
2023-05-10T13:03:01.296Z,17.94
2023-05-10T13:04:01.504Z,18.05
2023-05-10T13:05:01.913Z,17.94
2023-05-10T13:06:02.178Z,17.81
2023-05-10T13:07:03.264Z,17.83
2023-05-10T13:08:03.372Z,17.99
2023-05-10T13:09:03.485Z,18.21
2023-05-10T13:10:04.326Z,18.38
2023-05-10T13:11:04.728Z,18.59
2023-05-10T13:12:04.790Z,18.9
2023-05-10T13:13:05.866Z,19.28
2023-05-10T13:14:05.920Z,19.55
2023-05-10T13:15:07.622Z,19.64
2023-05-10T13:16:07.485Z,19.65
2023-05-10T13:17:07.197Z,19.68
2023-05-10T13:18:07.678Z,19.94
2023-05-10T13:19:07.946Z,19.83
2023-05-10T13:20:08.986Z,19.46
2023-05-10T13:21:08.797Z,19.55
2023-05-10T13:22:09.048Z,19.72
2023-05-10T13:23:09.459Z,19.61
2023-05-10T13:24:09.945Z,19.58
2023-05-10T13:25:10.961Z,19.45
2023-05-10T13:26:10.657Z,19.25
2023-05-10T13:27:10.977Z,19.35
2023-05-10T13:28:11.500Z,19.31
2023-05-10T13:29:11.704Z,19.2
2023-05-10T13:30:12.544Z,19.39
2023-05-10T13:31:12.702Z,19.59
2023-05-10T13:32:12.968Z,19.82
2023-05-10T13:33:13.469Z,19.6
2023-05-10T13:34:13.685Z,19.45
2023-05-10T13:35:14.092Z,19.39
2023-05-10T13:36:14.619Z,19.68
2023-05-10T13:37:14.822Z,19.93
2023-05-10T13:38:16.103Z,19.97
2023-05-10T13:39:15.626Z,19.9
2023-05-10T13:40:16.291Z,20.11
2023-05-10T13:41:16.318Z,20.2
2023-05-10T13:42:16.809Z,20.11
2023-05-10T13:43:17.330Z,19.85
2023-05-10T13:44:17.640Z,19.38
2023-05-10T13:45:18.429Z,19.13
2023-05-10T13:46:18.528Z,19.2
2023-05-10T13:47:18.900Z,19.56
2023-05-10T13:48:19.210Z,19.82
2023-05-10T13:49:19.730Z,19.8
2023-05-10T13:50:20.598Z,19.93
2023-05-10T13:51:20.352Z,19.86
2023-05-10T13:52:20.903Z,19.66
2023-05-10T13:53:21.281Z,19.99
2023-05-10T13:54:21.600Z,20.02
2023-05-10T13:55:22.535Z,19.98
2023-05-10T13:56:22.321Z,19.89
2023-05-10T13:57:23.460Z,19.87
2023-05-10T13:58:23.502Z,19.94
2023-05-10T13:59:23.474Z,19.73
2023-05-10T14:00:24.307Z,19.77
2023-05-10T14:01:24.560Z,19.68
2023-05-10T14:02:24.789Z,19.67
2023-05-10T14:03:25.287Z,19.9
2023-05-10T14:04:25.551Z,19.92
2023-05-10T14:05:26.631Z,20.03
2023-05-10T14:06:26.383Z,20.04
2023-05-10T14:07:26.700Z,19.91
2023-05-10T14:08:27.330Z,19.81
2023-05-10T14:09:27.442Z,19.39
2023-05-10T14:10:27.955Z,19.51
2023-05-10T14:11:28.264Z,19.5
2023-05-10T14:12:28.830Z,19.59
2023-05-10T14:13:29.207Z,19.79
2023-05-10T14:14:29.424Z,19.73
2023-05-10T14:15:29.947Z,19.73
2023-05-10T14:16:30.277Z,19.83
2023-05-10T14:17:30.572Z,19.89
2023-05-10T14:18:31.119Z,19.87
2023-05-10T14:19:31.340Z,19.99
2023-05-10T14:20:31.910Z,19.75